sensor_id;sensor_type;location;lat;lon;timestamp;pressure;altitude;pressure_sealevel;temperature;humidity
31761;BME280;18335;51.486;7.562;2023-05-03T00:00:09;101463.00;;;3.32;100.00
31761;BME280;18335;51.486;7.562;2023-05-03T00:02:38;101467.19;;;3.38;100.00
31761;BME280;18335;51.486;7.562;2023-05-03T00:05:09;101461.00;;;3.35;100.00
31761;BME280;18335;51.486;7.562;2023-05-03T00:07:38;101465.75;;;3.16;100.00
31761;BME280;18335;51.486;7.562;2023-05-03T00:10:06;101464.78;;;3.17;100.00
31761;BME280;18335;51.486;7.562;2023-05-03T00:12:33;101461.75;;;3.08;100.00
31761;BME280;18335;51.486;7.562;2023-05-03T00:15:00;101461.56;;;3.11;100.00
31761;BME280;18335;51.486;7.562;2023-05-03T00:17:27;101455.84;;;3.01;100.00
31761;BME280;18335;51.486;7.562;2023-05-03T00:19:55;101453.47;;;3.11;100.00
31761;BME280;18335;51.486;7.562;2023-05-03T00:22:21;101451.41;;;3.00;100.00
31761;BME280;18335;51.486;7.562;2023-05-03T00:24:48;101455.94;;;2.84;100.00
31761;BME280;18335;51.486;7.562;2023-05-03T00:27:15;101456.63;;;2.88;100.00
31761;BME280;18335;51.486;7.562;2023-05-03T00:29:42;101456.44;;;2.91;100.00
31761;BME280;18335;51.486;7.562;2023-05-03T00:32:09;101453.06;;;2.71;100.00
31761;BME280;18335;51.486;7.562;2023-05-03T00:34:36;101452.13;;;2.88;100.00
31761;BME280;18335;51.486;7.562;2023-05-03T00:37:04;101437.50;;;2.92;100.00
31761;BME280;18335;51.486;7.562;2023-05-03T00:39:32;101447.84;;;2.84;100.00
31761;BME280;18335;51.486;7.562;2023-05-03T00:41:59;101444.97;;;2.87;100.00
31761;BME280;18335;51.486;7.562;2023-05-03T00:44:26;101453.13;;;2.54;100.00
31761;BME280;18335;51.486;7.562;2023-05-03T00:46:53;101450.03;;;2.62;100.00
31761;BME280;18335;51.486;7.562;2023-05-03T00:49:20;101439.84;;;2.67;100.00
31761;BME280;18335;51.486;7.562;2023-05-03T00:51:50;101439.94;;;2.65;100.00
31761;BME280;18335;51.486;7.562;2023-05-03T00:54:20;101446.63;;;2.58;100.00
31761;BME280;18335;51.486;7.562;2023-05-03T00:56:47;101446.81;;;2.71;100.00
31761;BME280;18335;51.486;7.562;2023-05-03T00:59:14;101451.06;;;2.59;100.00
31761;BME280;18335;51.486;7.562;2023-05-03T01:01:41;101461.31;;;2.53;100.00
31761;BME280;18335;51.486;7.562;2023-05-03T01:04:08;101467.63;;;2.52;100.00
31761;BME280;18335;51.486;7.562;2023-05-03T01:06:41;101469.97;;;2.42;100.00
31761;BME280;18335;51.486;7.562;2023-05-03T01:09:14;101469.47;;;2.36;100.00
31761;BME280;18335;51.486;7.562;2023-05-03T01:11:51;101467.75;;;2.50;100.00
31761;BME280;18335;51.486;7.562;2023-05-03T01:14:27;101470.84;;;2.43;100.00
31761;BME280;18335;51.486;7.562;2023-05-03T01:17:01;101470.66;;;2.46;100.00
31761;BME280;18335;51.486;7.562;2023-05-03T01:19:33;101473.53;;;2.43;100.00
31761;BME280;18335;51.486;7.562;2023-05-03T01:22:14;101474.94;;;2.50;100.00
31761;BME280;18335;51.486;7.562;2023-05-03T01:24:45;101478.16;;;2.41;100.00
31761;BME280;18335;51.486;7.562;2023-05-03T01:27:14;101471.50;;;2.31;100.00
31761;BME280;18335;51.486;7.562;2023-05-03T01:29:40;101476.50;;;2.38;100.00
31761;BME280;18335;51.486;7.562;2023-05-03T01:32:11;101479.75;;;2.28;100.00
31761;BME280;18335;51.486;7.562;2023-05-03T01:34:48;101473.41;;;2.29;100.00
31761;BME280;18335;51.486;7.562;2023-05-03T01:37:16;101481.34;;;2.32;100.00
31761;BME280;18335;51.486;7.562;2023-05-03T01:39:49;101474.03;;;2.34;100.00
31761;BME280;18335;51.486;7.562;2023-05-03T01:42:19;101471.84;;;2.24;100.00
31761;BME280;18335;51.486;7.562;2023-05-03T01:44:48;101477.31;;;2.23;100.00
31761;BME280;18335;51.486;7.562;2023-05-03T01:47:15;101472.97;;;2.20;100.00
31761;BME280;18335;51.486;7.562;2023-05-03T01:49:42;101482.75;;;2.06;100.00
31761;BME280;18335;51.486;7.562;2023-05-03T01:52:09;101484.47;;;2.07;100.00
31761;BME280;18335;51.486;7.562;2023-05-03T01:54:36;101490.88;;;2.04;100.00
31761;BME280;18335;51.486;7.562;2023-05-03T01:57:03;101490.66;;;1.92;100.00
31761;BME280;18335;51.486;7.562;2023-05-03T01:59:31;101496.69;;;1.80;100.00
31761;BME280;18335;51.486;7.562;2023-05-03T02:01:58;101496.44;;;1.84;100.00
31761;BME280;18335;51.486;7.562;2023-05-03T02:04:25;101496.75;;;1.95;100.00
31761;BME280;18335;51.486;7.562;2023-05-03T02:06:52;101495.47;;;1.85;100.00
31761;BME280;18335;51.486;7.562;2023-05-03T02:09:19;101494.25;;;1.75;100.00
31761;BME280;18335;51.486;7.562;2023-05-03T02:11:46;101504.84;;;1.78;100.00
31761;BME280;18335;51.486;7.562;2023-05-03T02:14:13;101505.59;;;1.97;100.00
31761;BME280;18335;51.486;7.562;2023-05-03T02:16:41;101506.19;;;1.70;100.00
31761;BME280;18335;51.486;7.562;2023-05-03T02:19:08;101497.41;;;1.66;100.00
31761;BME280;18335;51.486;7.562;2023-05-03T02:21:36;101503.09;;;1.60;100.00
31761;BME280;18335;51.486;7.562;2023-05-03T02:24:04;101504.03;;;1.59;100.00
31761;BME280;18335;51.486;7.562;2023-05-03T02:26:31;101497.94;;;1.55;100.00
31761;BME280;18335;51.486;7.562;2023-05-03T02:28:57;101498.81;;;1.56;100.00
31761;BME280;18335;51.486;7.562;2023-05-03T02:31:25;101509.56;;;1.56;100.00
31761;BME280;18335;51.486;7.562;2023-05-03T02:33:54;101518.28;;;1.61;100.00
31761;BME280;18335;51.486;7.562;2023-05-03T02:36:21;101520.47;;;1.53;100.00
31761;BME280;18335;51.486;7.562;2023-05-03T02:38:49;101525.84;;;1.53;100.00
31761;BME280;18335;51.486;7.562;2023-05-03T02:41:16;101523.22;;;1.70;100.00
31761;BME280;18335;51.486;7.562;2023-05-03T02:43:43;101524.22;;;1.67;100.00
31761;BME280;18335;51.486;7.562;2023-05-03T02:46:11;101529.13;;;1.59;100.00
31761;BME280;18335;51.486;7.562;2023-05-03T02:48:38;101522.56;;;1.65;100.00
31761;BME280;18335;51.486;7.562;2023-05-03T02:51:07;101523.28;;;1.68;100.00
31761;BME280;18335;51.486;7.562;2023-05-03T02:53:33;101527.59;;;1.54;100.00
31761;BME280;18335;51.486;7.562;2023-05-03T02:56:02;101533.03;;;1.35;100.00
31761;BME280;18335;51.486;7.562;2023-05-03T02:58:29;101528.06;;;1.45;100.00
31761;BME280;18335;51.486;7.562;2023-05-03T03:00:58;101523.00;;;1.39;100.00
31761;BME280;18335;51.486;7.562;2023-05-03T03:03:28;101516.75;;;1.55;100.00
31761;BME280;18335;51.486;7.562;2023-05-03T03:05:54;101518.06;;;1.30;100.00
31761;BME280;18335;51.486;7.562;2023-05-03T03:08:23;101518.69;;;1.35;100.00
31761;BME280;18335;51.486;7.562;2023-05-03T03:10:50;101523.44;;;1.30;100.00
31761;BME280;18335;51.486;7.562;2023-05-03T03:13:17;101513.84;;;1.43;100.00
31761;BME280;18335;51.486;7.562;2023-05-03T03:15:44;101514.06;;;1.38;100.00
31761;BME280;18335;51.486;7.562;2023-05-03T03:18:11;101510.75;;;1.50;100.00
31761;BME280;18335;51.486;7.562;2023-05-03T03:20:38;101509.94;;;1.31;100.00
31761;BME280;18335;51.486;7.562;2023-05-03T03:23:04;101509.06;;;1.31;100.00
31761;BME280;18335;51.486;7.562;2023-05-03T03:25:34;101514.91;;;1.22;100.00
31761;BME280;18335;51.486;7.562;2023-05-03T03:28:00;101510.25;;;1.25;100.00
31761;BME280;18335;51.486;7.562;2023-05-03T03:30:29;101516.00;;;1.35;100.00
31761;BME280;18335;51.486;7.562;2023-05-03T03:33:05;101508.84;;;1.17;100.00
31761;BME280;18335;51.486;7.562;2023-05-03T03:35:37;101505.72;;;1.26;100.00
31761;BME280;18335;51.486;7.562;2023-05-03T03:38:05;101504.31;;;1.19;100.00
31761;BME280;18335;51.486;7.562;2023-05-03T03:40:37;101513.28;;;1.18;100.00
31761;BME280;18335;51.486;7.562;2023-05-03T03:43:04;101503.16;;;1.05;100.00
31761;BME280;18335;51.486;7.562;2023-05-03T03:45:31;101503.47;;;1.17;100.00
31761;BME280;18335;51.486;7.562;2023-05-03T03:47:58;101501.59;;;1.19;100.00
31761;BME280;18335;51.486;7.562;2023-05-03T03:50:26;101508.09;;;1.32;100.00
31761;BME280;18335;51.486;7.562;2023-05-03T03:52:52;101501.31;;;1.25;100.00
31761;BME280;18335;51.486;7.562;2023-05-03T03:55:20;101501.66;;;1.17;100.00
31761;BME280;18335;51.486;7.562;2023-05-03T03:57:50;101494.63;;;1.15;100.00
31761;BME280;18335;51.486;7.562;2023-05-03T04:00:17;101499.34;;;1.28;100.00
31761;BME280;18335;51.486;7.562;2023-05-03T04:02:50;101496.13;;;1.20;100.00
31761;BME280;18335;51.486;7.562;2023-05-03T04:05:18;101494.34;;;1.38;100.00
31761;BME280;18335;51.486;7.562;2023-05-03T04:07:45;101491.19;;;1.30;100.00
31761;BME280;18335;51.486;7.562;2023-05-03T04:10:14;101496.44;;;1.14;100.00
31761;BME280;18335;51.486;7.562;2023-05-03T04:12:42;101499.41;;;1.27;100.00
31761;BME280;18335;51.486;7.562;2023-05-03T04:15:12;101490.31;;;1.29;100.00
31761;BME280;18335;51.486;7.562;2023-05-03T04:17:39;101492.06;;;1.30;100.00
31761;BME280;18335;51.486;7.562;2023-05-03T04:20:10;101493.09;;;1.28;100.00
31761;BME280;18335;51.486;7.562;2023-05-03T04:22:39;101491.91;;;1.33;100.00
31761;BME280;18335;51.486;7.562;2023-05-03T04:25:10;101483.59;;;1.38;100.00
31761;BME280;18335;51.486;7.562;2023-05-03T04:27:38;101483.78;;;1.52;100.00
31761;BME280;18335;51.486;7.562;2023-05-03T04:30:07;101486.63;;;1.49;100.00
31761;BME280;18335;51.486;7.562;2023-05-03T04:32:35;101480.06;;;1.54;100.00
31761;BME280;18335;51.486;7.562;2023-05-03T04:35:09;101477.59;;;1.50;100.00
31761;BME280;18335;51.486;7.562;2023-05-03T04:37:39;101473.66;;;1.57;100.00
31761;BME280;18335;51.486;7.562;2023-05-03T04:40:08;101477.69;;;1.65;100.00
31761;BME280;18335;51.486;7.562;2023-05-03T04:42:40;101476.34;;;1.74;100.00
31761;BME280;18335;51.486;7.562;2023-05-03T04:45:08;101469.56;;;1.67;100.00
31761;BME280;18335;51.486;7.562;2023-05-03T04:47:37;101471.69;;;1.78;100.00
31761;BME280;18335;51.486;7.562;2023-05-03T04:50:04;101473.78;;;1.88;100.00
31761;BME280;18335;51.486;7.562;2023-05-03T04:52:33;101468.34;;;1.90;100.00
31761;BME280;18335;51.486;7.562;2023-05-03T04:55:00;101473.28;;;1.82;100.00
31761;BME280;18335;51.486;7.562;2023-05-03T04:57:27;101475.06;;;1.98;100.00
31761;BME280;18335;51.486;7.562;2023-05-03T04:59:54;101472.16;;;2.18;100.00
31761;BME280;18335;51.486;7.562;2023-05-03T05:02:21;101488.88;;;2.25;100.00
31761;BME280;18335;51.486;7.562;2023-05-03T05:04:49;101481.22;;;2.17;100.00
31761;BME280;18335;51.486;7.562;2023-05-03T05:07:16;101483.16;;;2.31;100.00
31761;BME280;18335;51.486;7.562;2023-05-03T05:09:44;101485.06;;;2.29;100.00
31761;BME280;18335;51.486;7.562;2023-05-03T05:12:11;101500.25;;;2.30;100.00
31761;BME280;18335;51.486;7.562;2023-05-03T05:14:41;101497.78;;;2.43;100.00
31761;BME280;18335;51.486;7.562;2023-05-03T05:17:08;101505.16;;;2.39;100.00
31761;BME280;18335;51.486;7.562;2023-05-03T05:19:35;101500.44;;;2.75;100.00
31761;BME280;18335;51.486;7.562;2023-05-03T05:22:03;101500.38;;;2.93;100.00
31761;BME280;18335;51.486;7.562;2023-05-03T05:24:39;101505.56;;;2.96;100.00
31761;BME280;18335;51.486;7.562;2023-05-03T05:27:06;101510.97;;;3.27;100.00
31761;BME280;18335;51.486;7.562;2023-05-03T05:29:33;101512.44;;;3.32;100.00
31761;BME280;18335;51.486;7.562;2023-05-03T05:32:00;101512.69;;;3.44;100.00
31761;BME280;18335;51.486;7.562;2023-05-03T05:34:28;101510.44;;;3.52;100.00
31761;BME280;18335;51.486;7.562;2023-05-03T05:36:55;101508.91;;;3.62;100.00
31761;BME280;18335;51.486;7.562;2023-05-03T05:39:24;101509.38;;;3.84;100.00
31761;BME280;18335;51.486;7.562;2023-05-03T05:41:51;101512.28;;;3.95;100.00
31761;BME280;18335;51.486;7.562;2023-05-03T05:44:18;101520.31;;;3.97;100.00
31761;BME280;18335;51.486;7.562;2023-05-03T05:46:47;101519.03;;;4.18;100.00
31761;BME280;18335;51.486;7.562;2023-05-03T05:49:14;101524.50;;;4.30;100.00
31761;BME280;18335;51.486;7.562;2023-05-03T05:51:42;101527.22;;;4.30;100.00
31761;BME280;18335;51.486;7.562;2023-05-03T05:54:10;101536.63;;;4.53;100.00
31761;BME280;18335;51.486;7.562;2023-05-03T05:56:38;101539.50;;;4.64;100.00
31761;BME280;18335;51.486;7.562;2023-05-03T05:59:05;101545.03;;;4.77;100.00
31761;BME280;18335;51.486;7.562;2023-05-03T06:01:33;101547.50;;;4.94;100.00
31761;BME280;18335;51.486;7.562;2023-05-03T06:04:00;101552.72;;;4.97;100.00
31761;BME280;18335;51.486;7.562;2023-05-03T06:06:28;101549.56;;;5.05;100.00
31761;BME280;18335;51.486;7.562;2023-05-03T06:08:55;101550.94;;;5.24;100.00
31761;BME280;18335;51.486;7.562;2023-05-03T06:11:22;101553.53;;;5.40;100.00
31761;BME280;18335;51.486;7.562;2023-05-03T06:13:51;101553.16;;;5.58;100.00
31761;BME280;18335;51.486;7.562;2023-05-03T06:16:18;101544.44;;;5.68;100.00
31761;BME280;18335;51.486;7.562;2023-05-03T06:18:48;101539.56;;;5.87;100.00
31761;BME280;18335;51.486;7.562;2023-05-03T06:21:14;101548.56;;;5.87;100.00
31761;BME280;18335;51.486;7.562;2023-05-03T06:23:41;101556.94;;;5.97;100.00
31761;BME280;18335;51.486;7.562;2023-05-03T06:26:08;101556.94;;;6.09;100.00
31761;BME280;18335;51.486;7.562;2023-05-03T06:28:35;101549.13;;;6.05;100.00
31761;BME280;18335;51.486;7.562;2023-05-03T06:31:03;101549.41;;;6.27;100.00
31761;BME280;18335;51.486;7.562;2023-05-03T06:33:31;101555.69;;;6.40;100.00
31761;BME280;18335;51.486;7.562;2023-05-03T06:35:58;101560.69;;;6.46;100.00
31761;BME280;18335;51.486;7.562;2023-05-03T06:38:27;101559.81;;;6.46;100.00
31761;BME280;18335;51.486;7.562;2023-05-03T06:40:54;101555.72;;;6.65;100.00
31761;BME280;18335;51.486;7.562;2023-05-03T06:43:20;101549.22;;;6.81;100.00
31761;BME280;18335;51.486;7.562;2023-05-03T06:46:09;101549.31;;;6.92;100.00
31761;BME280;18335;51.486;7.562;2023-05-03T06:48:37;101553.69;;;7.18;100.00
31761;BME280;18335;51.486;7.562;2023-05-03T06:51:04;101542.75;;;7.07;100.00
31761;BME280;18335;51.486;7.562;2023-05-03T06:53:30;101542.84;;;7.18;100.00
31761;BME280;18335;51.486;7.562;2023-05-03T06:55:57;101541.09;;;7.17;100.00
31761;BME280;18335;51.486;7.562;2023-05-03T06:58:24;101550.81;;;7.32;100.00
31761;BME280;18335;51.486;7.562;2023-05-03T07:00:51;101541.72;;;7.33;100.00
31761;BME280;18335;51.486;7.562;2023-05-03T07:03:19;101537.41;;;7.78;100.00
31761;BME280;18335;51.486;7.562;2023-05-03T07:05:47;101541.56;;;7.47;100.00
31761;BME280;18335;51.486;7.562;2023-05-03T07:08:13;101531.63;;;7.59;100.00
31761;BME280;18335;51.486;7.562;2023-05-03T07:10:40;101538.03;;;7.82;100.00
31761;BME280;18335;51.486;7.562;2023-05-03T07:13:06;101540.00;;;7.79;100.00
31761;BME280;18335;51.486;7.562;2023-05-03T07:15:33;101533.09;;;8.10;100.00
31761;BME280;18335;51.486;7.562;2023-05-03T07:18:00;101536.66;;;8.00;100.00
31761;BME280;18335;51.486;7.562;2023-05-03T07:20:28;101537.19;;;8.16;100.00
31761;BME280;18335;51.486;7.562;2023-05-03T07:22:55;101534.75;;;8.24;100.00
31761;BME280;18335;51.486;7.562;2023-05-03T07:25:22;101531.38;;;8.09;100.00
31761;BME280;18335;51.486;7.562;2023-05-03T07:27:49;101533.31;;;8.31;100.00
31761;BME280;18335;51.486;7.562;2023-05-03T07:30:16;101527.44;;;8.48;100.00
31761;BME280;18335;51.486;7.562;2023-05-03T07:32:43;101528.44;;;8.69;100.00
31761;BME280;18335;51.486;7.562;2023-05-03T07:35:09;101526.31;;;8.62;100.00
31761;BME280;18335;51.486;7.562;2023-05-03T07:37:37;101522.13;;;8.80;100.00
31761;BME280;18335;51.486;7.562;2023-05-03T07:40:05;101523.13;;;8.79;100.00
31761;BME280;18335;51.486;7.562;2023-05-03T07:42:32;101513.59;;;8.73;100.00
31761;BME280;18335;51.486;7.562;2023-05-03T07:44:59;101518.53;;;8.79;100.00
31761;BME280;18335;51.486;7.562;2023-05-03T07:47:26;101511.25;;;8.91;100.00
31761;BME280;18335;51.486;7.562;2023-05-03T07:49:53;101510.88;;;8.96;100.00
31761;BME280;18335;51.486;7.562;2023-05-03T07:52:20;101519.03;;;8.62;100.00
31761;BME280;18335;51.486;7.562;2023-05-03T07:54:48;101509.75;;;8.54;100.00
31761;BME280;18335;51.486;7.562;2023-05-03T07:57:15;101510.28;;;8.81;100.00
31761;BME280;18335;51.486;7.562;2023-05-03T07:59:42;101510.41;;;9.02;100.00
31761;BME280;18335;51.486;7.562;2023-05-03T08:02:09;101508.88;;;9.09;100.00
31761;BME280;18335;51.486;7.562;2023-05-03T08:04:35;101502.78;;;9.38;100.00
31761;BME280;18335;51.486;7.562;2023-05-03T08:07:02;101498.13;;;9.61;100.00
31761;BME280;18335;51.486;7.562;2023-05-03T08:09:29;101491.09;;;9.48;100.00
31761;BME280;18335;51.486;7.562;2023-05-03T08:11:58;101497.25;;;9.07;100.00
31761;BME280;18335;51.486;7.562;2023-05-03T08:14:24;101502.09;;;9.03;100.00
31761;BME280;18335;51.486;7.562;2023-05-03T08:16:52;101500.72;;;9.09;100.00
31761;BME280;18335;51.486;7.562;2023-05-03T08:19:18;101498.22;;;9.28;100.00
31761;BME280;18335;51.486;7.562;2023-05-03T08:21:45;101495.56;;;9.80;100.00
31761;BME280;18335;51.486;7.562;2023-05-03T08:24:12;101491.81;;;9.92;100.00
31761;BME280;18335;51.486;7.562;2023-05-03T08:26:40;101491.09;;;10.11;100.00
31761;BME280;18335;51.486;7.562;2023-05-03T08:29:08;101488.41;;;10.32;100.00
31761;BME280;18335;51.486;7.562;2023-05-03T08:31:35;101490.25;;;10.52;100.00
31761;BME280;18335;51.486;7.562;2023-05-03T08:34:02;101490.72;;;10.36;100.00
31761;BME280;18335;51.486;7.562;2023-05-03T08:36:29;101470.97;;;10.44;100.00
31761;BME280;18335;51.486;7.562;2023-05-03T08:38:57;101475.28;;;10.46;100.00
31761;BME280;18335;51.486;7.562;2023-05-03T08:41:27;101478.53;;;10.61;100.00
31761;BME280;18335;51.486;7.562;2023-05-03T08:43:55;101474.19;;;9.76;100.00
31761;BME280;18335;51.486;7.562;2023-05-03T08:46:24;101481.91;;;9.91;100.00
31761;BME280;18335;51.486;7.562;2023-05-03T08:48:52;101482.44;;;9.85;100.00
31761;BME280;18335;51.486;7.562;2023-05-03T08:51:20;101484.66;;;9.91;100.00
31761;BME280;18335;51.486;7.562;2023-05-03T08:53:47;101484.22;;;9.96;100.00
31761;BME280;18335;51.486;7.562;2023-05-03T08:56:27;101482.25;;;9.66;100.00
31761;BME280;18335;51.486;7.562;2023-05-03T08:58:54;101484.50;;;9.93;100.00
31761;BME280;18335;51.486;7.562;2023-05-03T09:01:21;101488.50;;;10.10;100.00
31761;BME280;18335;51.486;7.562;2023-05-03T09:03:50;101496.75;;;10.30;100.00
31761;BME280;18335;51.486;7.562;2023-05-03T09:06:18;101503.28;;;10.28;100.00
31761;BME280;18335;51.486;7.562;2023-05-03T09:08:45;101496.22;;;10.05;100.00
31761;BME280;18335;51.486;7.562;2023-05-03T09:11:19;101489.91;;;10.45;100.00
31761;BME280;18335;51.486;7.562;2023-05-03T09:13:46;101486.53;;;10.83;100.00
31761;BME280;18335;51.486;7.562;2023-05-03T09:16:21;101480.88;;;10.75;100.00
31761;BME280;18335;51.486;7.562;2023-05-03T09:18:57;101476.22;;;10.96;100.00
31761;BME280;18335;51.486;7.562;2023-05-03T09:21:24;101477.88;;;10.78;100.00
31761;BME280;18335;51.486;7.562;2023-05-03T09:23:51;101469.66;;;10.69;100.00
31761;BME280;18335;51.486;7.562;2023-05-03T09:26:26;101467.78;;;11.09;100.00
31761;BME280;18335;51.486;7.562;2023-05-03T09:28:53;101467.41;;;11.23;100.00
31761;BME280;18335;51.486;7.562;2023-05-03T09:31:21;101451.94;;;11.43;100.00
31761;BME280;18335;51.486;7.562;2023-05-03T09:33:48;101466.97;;;11.18;100.00
31761;BME280;18335;51.486;7.562;2023-05-03T09:36:16;101475.06;;;11.39;100.00
31761;BME280;18335;51.486;7.562;2023-05-03T09:38:42;101472.78;;;11.44;100.00
31761;BME280;18335;51.486;7.562;2023-05-03T09:41:09;101471.44;;;11.19;100.00
31761;BME280;18335;51.486;7.562;2023-05-03T09:43:47;101460.97;;;11.53;100.00
31761;BME280;18335;51.486;7.562;2023-05-03T09:46:14;101467.75;;;10.99;100.00
31761;BME280;18335;51.486;7.562;2023-05-03T09:48:41;101462.44;;;11.57;100.00
31761;BME280;18335;51.486;7.562;2023-05-03T09:51:09;101457.53;;;11.32;100.00
31761;BME280;18335;51.486;7.562;2023-05-03T09:53:38;101445.63;;;11.71;100.00
31761;BME280;18335;51.486;7.562;2023-05-03T09:56:09;101443.03;;;11.98;100.00
31761;BME280;18335;51.486;7.562;2023-05-03T09:58:38;101446.22;;;11.75;100.00
31761;BME280;18335;51.486;7.562;2023-05-03T10:01:05;101452.94;;;11.51;100.00
31761;BME280;18335;51.486;7.562;2023-05-03T10:03:38;101439.47;;;11.79;100.00
31761;BME280;18335;51.486;7.562;2023-05-03T10:08:52;101442.91;;;12.09;100.00
31761;BME280;18335;51.486;7.562;2023-05-03T10:11:23;101437.44;;;12.09;100.00
31761;BME280;18335;51.486;7.562;2023-05-03T10:13:51;101441.03;;;12.00;100.00
31761;BME280;18335;51.486;7.562;2023-05-03T10:16:21;101440.88;;;12.21;100.00
31761;BME280;18335;51.486;7.562;2023-05-03T10:18:52;101438.34;;;12.37;100.00
31761;BME280;18335;51.486;7.562;2023-05-03T10:21:28;101432.31;;;12.34;100.00
31761;BME280;18335;51.486;7.562;2023-05-03T10:24:19;101431.41;;;12.43;100.00
31761;BME280;18335;51.486;7.562;2023-05-03T10:26:47;101423.56;;;12.20;100.00
31761;BME280;18335;51.486;7.562;2023-05-03T10:29:43;101428.53;;;12.54;100.00
31761;BME280;18335;51.486;7.562;2023-05-03T10:32:32;101413.66;;;12.56;100.00
31761;BME280;18335;51.486;7.562;2023-05-03T10:35:00;101409.97;;;12.48;100.00
31761;BME280;18335;51.486;7.562;2023-05-03T10:37:28;101412.44;;;12.32;100.00
31761;BME280;18335;51.486;7.562;2023-05-03T10:40:04;101403.41;;;12.58;100.00
31761;BME280;18335;51.486;7.562;2023-05-03T10:42:31;101397.97;;;12.49;100.00
31761;BME280;18335;51.486;7.562;2023-05-03T10:44:59;101398.63;;;12.70;100.00
31761;BME280;18335;51.486;7.562;2023-05-03T10:47:28;101399.47;;;12.70;100.00
31761;BME280;18335;51.486;7.562;2023-05-03T10:50:24;101401.78;;;12.38;100.00
31761;BME280;18335;51.486;7.562;2023-05-03T10:52:51;101398.78;;;12.96;100.00
31761;BME280;18335;51.486;7.562;2023-05-03T10:55:21;101397.81;;;13.14;100.00
31761;BME280;18335;51.486;7.562;2023-05-03T10:57:55;101390.78;;;13.02;100.00
31761;BME280;18335;51.486;7.562;2023-05-03T11:00:27;101384.97;;;12.88;100.00
31761;BME280;18335;51.486;7.562;2023-05-03T11:03:06;101387.41;;;13.18;100.00
31761;BME280;18335;51.486;7.562;2023-05-03T11:05:35;101376.47;;;13.18;100.00
31761;BME280;18335;51.486;7.562;2023-05-03T11:08:13;101381.56;;;13.03;100.00
31761;BME280;18335;51.486;7.562;2023-05-03T11:10:44;101369.78;;;13.20;100.00
31761;BME280;18335;51.486;7.562;2023-05-03T11:13:11;101373.81;;;13.44;100.00
31761;BME280;18335;51.486;7.562;2023-05-03T11:15:38;101368.56;;;13.32;100.00
31761;BME280;18335;51.486;7.562;2023-05-03T11:18:05;101369.75;;;13.03;100.00
31761;BME280;18335;51.486;7.562;2023-05-03T11:20:32;101364.00;;;13.41;100.00
31761;BME280;18335;51.486;7.562;2023-05-03T11:22:59;101361.66;;;13.64;100.00
31761;BME280;18335;51.486;7.562;2023-05-03T11:25:27;101361.91;;;13.53;100.00
31761;BME280;18335;51.486;7.562;2023-05-03T11:27:55;101369.53;;;13.59;100.00
31761;BME280;18335;51.486;7.562;2023-05-03T11:30:22;101354.16;;;13.13;100.00
31761;BME280;18335;51.486;7.562;2023-05-03T11:32:48;101356.75;;;13.50;100.00
31761;BME280;18335;51.486;7.562;2023-05-03T11:35:15;101360.09;;;13.79;100.00
31761;BME280;18335;51.486;7.562;2023-05-03T11:37:43;101356.25;;;13.72;100.00
31761;BME280;18335;51.486;7.562;2023-05-03T11:40:14;101353.75;;;14.04;100.00
31761;BME280;18335;51.486;7.562;2023-05-03T11:42:53;101347.56;;;13.76;100.00
31761;BME280;18335;51.486;7.562;2023-05-03T11:45:23;101332.66;;;14.30;100.00
31761;BME280;18335;51.486;7.562;2023-05-03T11:47:50;101354.06;;;14.01;100.00
31761;BME280;18335;51.486;7.562;2023-05-03T11:50:18;101336.53;;;14.20;100.00
31761;BME280;18335;51.486;7.562;2023-05-03T11:52:52;101336.41;;;14.29;100.00
31761;BME280;18335;51.486;7.562;2023-05-03T11:55:20;101331.13;;;14.62;100.00
31761;BME280;18335;51.486;7.562;2023-05-03T11:57:47;101333.72;;;14.63;100.00
31761;BME280;18335;51.486;7.562;2023-05-03T12:00:14;101337.84;;;14.33;100.00
31761;BME280;18335;51.486;7.562;2023-05-03T12:02:46;101339.00;;;14.57;100.00
31761;BME280;18335;51.486;7.562;2023-05-03T12:05:14;101336.03;;;14.84;100.00
31761;BME280;18335;51.486;7.562;2023-05-03T12:07:41;101339.19;;;15.05;100.00
31761;BME280;18335;51.486;7.562;2023-05-03T12:10:13;101341.94;;;15.13;100.00
31761;BME280;18335;51.486;7.562;2023-05-03T12:12:51;101341.31;;;14.77;100.00
31761;BME280;18335;51.486;7.562;2023-05-03T12:15:26;101340.22;;;14.62;100.00
31761;BME280;18335;51.486;7.562;2023-05-03T12:17:56;101345.94;;;14.77;99.75
31761;BME280;18335;51.486;7.562;2023-05-03T12:20:24;101345.78;;;14.36;100.00
31761;BME280;18335;51.486;7.562;2023-05-03T12:22:54;101336.50;;;14.79;100.00
31761;BME280;18335;51.486;7.562;2023-05-03T12:25:21;101322.41;;;14.66;95.11
31761;BME280;18335;51.486;7.562;2023-05-03T12:27:49;101329.53;;;14.93;97.35
31761;BME280;18335;51.486;7.562;2023-05-03T12:30:17;101322.84;;;14.54;100.00
31761;BME280;18335;51.486;7.562;2023-05-03T12:32:44;101319.63;;;15.16;100.00
31761;BME280;18335;51.486;7.562;2023-05-03T12:35:12;101318.81;;;14.74;99.79
31761;BME280;18335;51.486;7.562;2023-05-03T12:37:39;101321.97;;;14.95;99.81
31761;BME280;18335;51.486;7.562;2023-05-03T12:40:06;101318.47;;;15.51;100.00
31761;BME280;18335;51.486;7.562;2023-05-03T12:42:34;101305.19;;;15.95;100.00
31761;BME280;18335;51.486;7.562;2023-05-03T12:45:01;101295.25;;;15.86;99.71
31761;BME280;18335;51.486;7.562;2023-05-03T12:47:28;101305.78;;;15.50;95.52
31761;BME280;18335;51.486;7.562;2023-05-03T12:49:54;101310.22;;;15.59;94.74
31761;BME280;18335;51.486;7.562;2023-05-03T12:52:23;101294.56;;;15.84;91.86
31761;BME280;18335;51.486;7.562;2023-05-03T12:54:50;101293.88;;;15.82;91.70
31761;BME280;18335;51.486;7.562;2023-05-03T12:57:17;101291.44;;;16.03;82.35